Mara? — 5VAB4 — position and weather

sailwx.info

Track history (hours):
 
Tides and Currents Weather Stations Pressure Air Temp Water Temp Dewpoint Dewpoint Depression Visibility Wind Speed Wind Dir Waves Ship Positions

Mara?

Last reported at 2017-Dec-11 16:46 UTC. Time now 2017-Dec-12 12:38 UTC.
Position N 40°57' E 028°54'.

Length 74 m.

Type: Ship. MMSI: 669962424.

Date/timePositionNaut miles runAvg speedWind from/ knotsBaromVisibWave heightAir tempDewpointWater temp
2017-Dec-11 16:46N 40°57' E 028°54'0 0.0
2017-Dec-11 16:21N 40°57' E 028°54'0 0.1
2017-Dec-11 15:59N 40°57' E 028°54'4 1.0
2017-Dec-11 12:34N 40°54' E 028°55'239 5.4
2017-Dec-09 16:28N 37°48' E 025°41'6 8.2
2017-Dec-09 15:45N 37°42' E 025°41'2 8.2
2017-Dec-09 15:30N 37°40' E 025°41'4 8.3
2017-Dec-09 15:00N 37°36' E 025°41'4 8.2
2017-Dec-09 14:29N 37°31' E 025°41'4 8.0
2017-Dec-09 14:00N 37°28' E 025°41'6 7.5
2017-Dec-09 13:15N 37°22' E 025°38'2 7.7
2017-Dec-09 13:00N 37°21' E 025°36'4 7.7
2017-Dec-09 12:30N 37°19' E 025°32'4 7.8
2017-Dec-09 12:00N 37°17' E 025°28'4 7.8
2017-Dec-09 11:30N 37°16' E 025°24'4 8.5
2017-Dec-09 11:00N 37°14' E 025°19'4 8.5
2017-Dec-09 10:30N 37°12' E 025°14'4 8.3
2017-Dec-09 10:00N 37°10' E 025°09'4 8.2
2017-Dec-09 09:30N 37°08' E 025°05'4 8.2
2017-Dec-09 09:00N 37°06' E 025°00'4 8.1
2017-Dec-09 08:30N 37°03' E 024°56'4 8.2
2017-Dec-09 08:01N 36°60' E 024°55'4 8.2
2017-Dec-09 07:30N 36°56' E 024°53'4 8.1
2017-Dec-09 07:00N 36°52' E 024°51'4 8.1
2017-Dec-09 06:31N 36°48' E 024°49'4 8.1
2017-Dec-09 06:00N 36°45' E 024°47'4 8.1
2017-Dec-09 05:30N 36°41' E 024°44'4 8.1
2017-Dec-09 05:00N 36°37' E 024°42'4 8.1
2017-Dec-09 04:30N 36°35' E 024°38'4 8.1
2017-Dec-09 04:00N 36°32' E 024°34'4 8.0
2017-Dec-09 03:30N 36°30' E 024°30'4 7.8
2017-Dec-09 03:00N 36°28' E 024°27'4 7.9
2017-Dec-09 02:30N 36°25' E 024°23'4 7.9
2017-Dec-09 02:01N 36°23' E 024°19'4 7.9
2017-Dec-09 01:30N 36°20' E 024°15'4 7.9
2017-Dec-09 01:00N 36°18' E 024°11'6 7.9
2017-Dec-09 00:13N 36°15' E 024°04'  
Track history (hours):
 
Tides and Currents Weather Stations Pressure Air Temp Water Temp Dewpoint Dewpoint Depression Visibility Wind Speed Wind Dir Waves Ship Positions

Mara?

Last reported at 2017-Dec-11 16:46 UTC. Time now 2017-Dec-12 12:38 UTC.
Position N 40°57' E 028°54'.

Length 74 m.

Type: Ship. MMSI: 669962424.

Date/timePositionNaut miles runAvg speedWind from/ knotsBaromVisibWave heightAir tempDewpointWater temp
2017-Dec-11 16:46N 40°57' E 028°54'0 0.0
2017-Dec-11 16:21N 40°57' E 028°54'0 0.1
2017-Dec-11 15:59N 40°57' E 028°54'4 1.0
2017-Dec-11 12:34N 40°54' E 028°55'239 5.4
2017-Dec-09 16:28N 37°48' E 025°41'6 8.2
2017-Dec-09 15:45N 37°42' E 025°41'2 8.2
2017-Dec-09 15:30N 37°40' E 025°41'4 8.3
2017-Dec-09 15:00N 37°36' E 025°41'4 8.2
2017-Dec-09 14:29N 37°31' E 025°41'4 8.0
2017-Dec-09 14:00N 37°28' E 025°41'6 7.5
2017-Dec-09 13:15N 37°22' E 025°38'2 7.7
2017-Dec-09 13:00N 37°21' E 025°36'4 7.7
2017-Dec-09 12:30N 37°19' E 025°32'4 7.8
2017-Dec-09 12:00N 37°17' E 025°28'4 7.8
2017-Dec-09 11:30N 37°16' E 025°24'4 8.5
2017-Dec-09 11:00N 37°14' E 025°19'4 8.5
2017-Dec-09 10:30N 37°12' E 025°14'4 8.3
2017-Dec-09 10:00N 37°10' E 025°09'4 8.2
2017-Dec-09 09:30N 37°08' E 025°05'4 8.2
2017-Dec-09 09:00N 37°06' E 025°00'4 8.1
2017-Dec-09 08:30N 37°03' E 024°56'4 8.2
2017-Dec-09 08:01N 36°60' E 024°55'4 8.2
2017-Dec-09 07:30N 36°56' E 024°53'4 8.1
2017-Dec-09 07:00N 36°52' E 024°51'4 8.1
2017-Dec-09 06:31N 36°48' E 024°49'4 8.1
2017-Dec-09 06:00N 36°45' E 024°47'4 8.1
2017-Dec-09 05:30N 36°41' E 024°44'4 8.1
2017-Dec-09 05:00N 36°37' E 024°42'4 8.1
2017-Dec-09 04:30N 36°35' E 024°38'4 8.1
2017-Dec-09 04:00N 36°32' E 024°34'4 8.0
2017-Dec-09 03:30N 36°30' E 024°30'4 7.8
2017-Dec-09 03:00N 36°28' E 024°27'4 7.9
2017-Dec-09 02:30N 36°25' E 024°23'4 7.9
2017-Dec-09 02:01N 36°23' E 024°19'4 7.9
2017-Dec-09 01:30N 36°20' E 024°15'4 7.9
2017-Dec-09 01:00N 36°18' E 024°11'6 7.9
2017-Dec-09 00:13N 36°15' E 024°04'  

Dump ship's entire track history